sensor_id;sensor_type;location;lat;lon;timestamp;temperature;humidity
28189;DHT22;15471;51.166;4.470;2022-09-27T00:00:41;9.70;99.90
28189;DHT22;15471;51.166;4.470;2022-09-27T00:03:09;9.70;99.90
28189;DHT22;15471;51.166;4.470;2022-09-27T00:05:35;9.70;99.90
28189;DHT22;15471;51.166;4.470;2022-09-27T00:08:01;9.80;99.90
28189;DHT22;15471;51.166;4.470;2022-09-27T00:10:27;9.90;99.90
28189;DHT22;15471;51.166;4.470;2022-09-27T00:12:54;9.90;99.90
28189;DHT22;15471;51.166;4.470;2022-09-27T00:15:20;10.00;99.90
28189;DHT22;15471;51.166;4.470;2022-09-27T00:17:47;10.00;99.90
28189;DHT22;15471;51.166;4.470;2022-09-27T00:20:17;10.00;99.90
28189;DHT22;15471;51.166;4.470;2022-09-27T00:22:46;10.00;99.90
28189;DHT22;15471;51.166;4.470;2022-09-27T00:25:13;10.00;99.90
28189;DHT22;15471;51.166;4.470;2022-09-27T00:27:39;10.00;99.90
28189;DHT22;15471;51.166;4.470;2022-09-27T00:30:06;10.00;99.90
28189;DHT22;15471;51.166;4.470;2022-09-27T00:32:32;10.00;99.90
28189;DHT22;15471;51.166;4.470;2022-09-27T00:34:58;10.00;99.90
28189;DHT22;15471;51.166;4.470;2022-09-27T00:37:24;10.00;99.90
28189;DHT22;15471;51.166;4.470;2022-09-27T00:39:52;10.00;99.90
28189;DHT22;15471;51.166;4.470;2022-09-27T00:42:18;9.90;99.90
28189;DHT22;15471;51.166;4.470;2022-09-27T00:45:00;9.90;99.90
28189;DHT22;15471;51.166;4.470;2022-09-27T00:50:27;9.80;99.90
28189;DHT22;15471;51.166;4.470;2022-09-27T00:56:03;9.90;99.90
28189;DHT22;15471;51.166;4.470;2022-09-27T00:58:36;9.90;99.90
28189;DHT22;15471;51.166;4.470;2022-09-27T01:01:06;9.90;99.90
28189;DHT22;15471;51.166;4.470;2022-09-27T01:06:09;9.80;99.90
28189;DHT22;15471;51.166;4.470;2022-09-27T01:08:36;9.80;99.90
28189;DHT22;15471;51.166;4.470;2022-09-27T01:11:19;9.80;99.90
28189;DHT22;15471;51.166;4.470;2022-09-27T01:16:35;9.90;99.90
28189;DHT22;15471;51.166;4.470;2022-09-27T01:19:20;9.90;99.90
28189;DHT22;15471;51.166;4.470;2022-09-27T01:22:09;10.00;99.90
28189;DHT22;15471;51.166;4.470;2022-09-27T01:25:15;9.80;99.90
28189;DHT22;15471;51.166;4.470;2022-09-27T01:31:00;9.60;99.90
28189;DHT22;15471;51.166;4.470;2022-09-27T01:38:26;9.40;99.90
28189;DHT22;15471;51.166;4.470;2022-09-27T01:41:19;9.30;99.90
28189;DHT22;15471;51.166;4.470;2022-09-27T01:44:32;9.30;99.90
28189;DHT22;15471;51.166;4.470;2022-09-27T01:47:14;9.30;99.90
28189;DHT22;15471;51.166;4.470;2022-09-27T01:49:58;9.30;99.90
28189;DHT22;15471;51.166;4.470;2022-09-27T01:52:33;9.20;99.90
28189;DHT22;15471;51.166;4.470;2022-09-27T01:55:02;9.20;99.90
28189;DHT22;15471;51.166;4.470;2022-09-27T01:57:55;9.20;99.90
28189;DHT22;15471;51.166;4.470;2022-09-27T02:00:25;9.10;99.90
28189;DHT22;15471;51.166;4.470;2022-09-27T02:02:57;9.10;99.90
28189;DHT22;15471;51.166;4.470;2022-09-27T02:05:53;9.10;99.90
28189;DHT22;15471;51.166;4.470;2022-09-27T02:08:58;9.10;99.90
28189;DHT22;15471;51.166;4.470;2022-09-27T02:11:53;9.00;99.90
28189;DHT22;15471;51.166;4.470;2022-09-27T02:14:40;8.90;99.90
28189;DHT22;15471;51.166;4.470;2022-09-27T02:17:11;8.80;99.90
28189;DHT22;15471;51.166;4.470;2022-09-27T02:19:52;8.80;99.90
28189;DHT22;15471;51.166;4.470;2022-09-27T02:27:49;8.60;99.90
28189;DHT22;15471;51.166;4.470;2022-09-27T02:30:18;8.60;99.90
28189;DHT22;15471;51.166;4.470;2022-09-27T02:32:51;8.60;99.90
28189;DHT22;15471;51.166;4.470;2022-09-27T02:35:43;8.60;99.90
28189;DHT22;15471;51.166;4.470;2022-09-27T02:38:11;8.50;99.90
28189;DHT22;15471;51.166;4.470;2022-09-27T02:40:45;8.50;99.90
28189;DHT22;15471;51.166;4.470;2022-09-27T02:43:14;8.40;99.90
28189;DHT22;15471;51.166;4.470;2022-09-27T03:05:20;8.30;99.90
28189;DHT22;15471;51.166;4.470;2022-09-27T03:07:48;8.30;99.90
28189;DHT22;15471;51.166;4.470;2022-09-27T03:10:26;8.40;99.90
28189;DHT22;15471;51.166;4.470;2022-09-27T03:12:52;8.50;99.90
28189;DHT22;15471;51.166;4.470;2022-09-27T03:15:19;8.60;99.90
28189;DHT22;15471;51.166;4.470;2022-09-27T03:18:01;8.60;99.90
28189;DHT22;15471;51.166;4.470;2022-09-27T03:20:46;8.60;99.90
28189;DHT22;15471;51.166;4.470;2022-09-27T03:23:16;8.70;99.90
28189;DHT22;15471;51.166;4.470;2022-09-27T03:25:42;8.70;99.90
28189;DHT22;15471;51.166;4.470;2022-09-27T03:28:11;8.80;99.90
28189;DHT22;15471;51.166;4.470;2022-09-27T03:30:39;8.70;99.90
28189;DHT22;15471;51.166;4.470;2022-09-27T03:33:07;8.70;99.90
28189;DHT22;15471;51.166;4.470;2022-09-27T03:35:42;8.70;99.90
28189;DHT22;15471;51.166;4.470;2022-09-27T03:38:09;8.70;99.90
28189;DHT22;15471;51.166;4.470;2022-09-27T03:40:35;8.70;99.90
28189;DHT22;15471;51.166;4.470;2022-09-27T03:43:02;8.70;99.90
28189;DHT22;15471;51.166;4.470;2022-09-27T03:45:30;8.60;99.90
28189;DHT22;15471;51.166;4.470;2022-09-27T03:47:59;8.70;99.90
28189;DHT22;15471;51.166;4.470;2022-09-27T03:50:25;8.70;99.90
28189;DHT22;15471;51.166;4.470;2022-09-27T03:52:51;8.70;99.90
28189;DHT22;15471;51.166;4.470;2022-09-27T03:55:20;8.60;99.90
28189;DHT22;15471;51.166;4.470;2022-09-27T03:57:46;8.60;99.90
28189;DHT22;15471;51.166;4.470;2022-09-27T04:00:13;8.60;99.90
28189;DHT22;15471;51.166;4.470;2022-09-27T04:02:41;8.70;99.90
28189;DHT22;15471;51.166;4.470;2022-09-27T04:05:23;8.80;99.90
28189;DHT22;15471;51.166;4.470;2022-09-27T04:07:54;9.00;99.90
28189;DHT22;15471;51.166;4.470;2022-09-27T04:10:21;9.00;99.90
28189;DHT22;15471;51.166;4.470;2022-09-27T04:12:49;9.00;99.90
28189;DHT22;15471;51.166;4.470;2022-09-27T04:15:16;9.00;99.90
28189;DHT22;15471;51.166;4.470;2022-09-27T04:17:49;9.00;99.90
28189;DHT22;15471;51.166;4.470;2022-09-27T04:20:34;9.10;99.90
28189;DHT22;15471;51.166;4.470;2022-09-27T04:23:07;9.10;99.90
28189;DHT22;15471;51.166;4.470;2022-09-27T04:25:35;9.10;99.90
28189;DHT22;15471;51.166;4.470;2022-09-27T04:28:08;9.20;99.90
28189;DHT22;15471;51.166;4.470;2022-09-27T04:30:34;9.10;99.90
28189;DHT22;15471;51.166;4.470;2022-09-27T04:33:03;9.10;99.90
28189;DHT22;15471;51.166;4.470;2022-09-27T04:35:55;9.00;99.90
28189;DHT22;15471;51.166;4.470;2022-09-27T04:38:59;9.00;99.90
28189;DHT22;15471;51.166;4.470;2022-09-27T04:41:27;9.00;99.90
28189;DHT22;15471;51.166;4.470;2022-09-27T04:43:57;9.00;99.90
28189;DHT22;15471;51.166;4.470;2022-09-27T04:46:26;9.10;99.90
28189;DHT22;15471;51.166;4.470;2022-09-27T04:49:00;9.20;99.90
28189;DHT22;15471;51.166;4.470;2022-09-27T04:51:28;9.20;99.90
28189;DHT22;15471;51.166;4.470;2022-09-27T04:53:57;9.20;99.90
28189;DHT22;15471;51.166;4.470;2022-09-27T04:56:28;9.20;99.90
28189;DHT22;15471;51.166;4.470;2022-09-27T04:58:54;9.20;99.90
28189;DHT22;15471;51.166;4.470;2022-09-27T05:01:20;9.30;99.90
28189;DHT22;15471;51.166;4.470;2022-09-27T05:04:05;9.30;99.90
28189;DHT22;15471;51.166;4.470;2022-09-27T05:06:34;9.20;99.90
28189;DHT22;15471;51.166;4.470;2022-09-27T05:09:06;9.30;99.90
28189;DHT22;15471;51.166;4.470;2022-09-27T05:11:46;9.20;99.90
28189;DHT22;15471;51.166;4.470;2022-09-27T05:14:15;9.20;99.90
28189;DHT22;15471;51.166;4.470;2022-09-27T05:17:01;9.20;99.90
28189;DHT22;15471;51.166;4.470;2022-09-27T05:19:42;9.30;99.90
28189;DHT22;15471;51.166;4.470;2022-09-27T05:22:18;9.30;99.90
28189;DHT22;15471;51.166;4.470;2022-09-27T05:24:45;9.30;99.90
28189;DHT22;15471;51.166;4.470;2022-09-27T05:27:13;9.40;99.90
28189;DHT22;15471;51.166;4.470;2022-09-27T05:29:41;9.50;99.90
28189;DHT22;15471;51.166;4.470;2022-09-27T05:32:12;9.50;99.90
28189;DHT22;15471;51.166;4.470;2022-09-27T05:34:39;9.50;99.90
28189;DHT22;15471;51.166;4.470;2022-09-27T05:37:05;9.40;99.90
28189;DHT22;15471;51.166;4.470;2022-09-27T05:39:36;9.40;99.90
28189;DHT22;15471;51.166;4.470;2022-09-27T05:42:02;9.50;99.90
28189;DHT22;15471;51.166;4.470;2022-09-27T05:44:30;9.50;99.90
28189;DHT22;15471;51.166;4.470;2022-09-27T05:47:01;9.50;99.90
28189;DHT22;15471;51.166;4.470;2022-09-27T05:49:30;9.40;99.90
28189;DHT22;15471;51.166;4.470;2022-09-27T05:51:57;9.40;99.90
28189;DHT22;15471;51.166;4.470;2022-09-27T05:54:25;9.30;99.90
28189;DHT22;15471;51.166;4.470;2022-09-27T05:56:55;9.30;99.90
28189;DHT22;15471;51.166;4.470;2022-09-27T05:59:52;9.20;99.90
28189;DHT22;15471;51.166;4.470;2022-09-27T06:02:20;9.30;99.90
28189;DHT22;15471;51.166;4.470;2022-09-27T06:05:05;9.30;99.90
28189;DHT22;15471;51.166;4.470;2022-09-27T06:07:38;9.30;99.90
28189;DHT22;15471;51.166;4.470;2022-09-27T06:10:12;9.30;99.90
28189;DHT22;15471;51.166;4.470;2022-09-27T06:12:38;9.30;99.90
28189;DHT22;15471;51.166;4.470;2022-09-27T06:15:13;9.30;99.90
28189;DHT22;15471;51.166;4.470;2022-09-27T06:17:42;9.30;99.90
28189;DHT22;15471;51.166;4.470;2022-09-27T06:20:19;9.30;99.90
28189;DHT22;15471;51.166;4.470;2022-09-27T06:22:47;9.30;99.90
28189;DHT22;15471;51.166;4.470;2022-09-27T06:25:18;9.30;99.90
28189;DHT22;15471;51.166;4.470;2022-09-27T06:28:02;9.30;99.90
28189;DHT22;15471;51.166;4.470;2022-09-27T06:30:29;9.30;99.90
28189;DHT22;15471;51.166;4.470;2022-09-27T06:32:57;9.30;99.90
28189;DHT22;15471;51.166;4.470;2022-09-27T06:35:47;9.30;99.90
28189;DHT22;15471;51.166;4.470;2022-09-27T06:38:16;9.30;99.90
28189;DHT22;15471;51.166;4.470;2022-09-27T06:41:05;9.30;99.90
28189;DHT22;15471;51.166;4.470;2022-09-27T06:43:50;9.40;99.90
28189;DHT22;15471;51.166;4.470;2022-09-27T06:46:35;9.30;99.90
28189;DHT22;15471;51.166;4.470;2022-09-27T06:49:28;9.30;99.90
28189;DHT22;15471;51.166;4.470;2022-09-27T06:51:56;9.20;99.90
28189;DHT22;15471;51.166;4.470;2022-09-27T06:54:23;9.30;99.90
28189;DHT22;15471;51.166;4.470;2022-09-27T06:56:49;9.30;99.90
28189;DHT22;15471;51.166;4.470;2022-09-27T06:59:16;9.20;99.90
28189;DHT22;15471;51.166;4.470;2022-09-27T07:02:19;9.20;99.90
28189;DHT22;15471;51.166;4.470;2022-09-27T07:04:57;9.30;99.90
28189;DHT22;15471;51.166;4.470;2022-09-27T07:07:40;9.30;99.90
28189;DHT22;15471;51.166;4.470;2022-09-27T07:10:10;9.30;99.90
28189;DHT22;15471;51.166;4.470;2022-09-27T07:12:36;9.30;99.90
28189;DHT22;15471;51.166;4.470;2022-09-27T07:15:04;9.30;99.90
28189;DHT22;15471;51.166;4.470;2022-09-27T07:17:30;9.30;99.90
28189;DHT22;15471;51.166;4.470;2022-09-27T07:19:56;9.30;99.90
28189;DHT22;15471;51.166;4.470;2022-09-27T07:22:24;9.20;99.90
28189;DHT22;15471;51.166;4.470;2022-09-27T07:24:58;9.30;99.90
28189;DHT22;15471;51.166;4.470;2022-09-27T07:27:24;9.30;99.90
28189;DHT22;15471;51.166;4.470;2022-09-27T07:29:51;9.30;99.90
28189;DHT22;15471;51.166;4.470;2022-09-27T07:32:20;9.30;99.90
28189;DHT22;15471;51.166;4.470;2022-09-27T07:34:47;9.30;99.90
28189;DHT22;15471;51.166;4.470;2022-09-27T07:37:13;9.50;99.90
28189;DHT22;15471;51.166;4.470;2022-09-27T07:39:39;9.60;99.90
28189;DHT22;15471;51.166;4.470;2022-09-27T07:42:05;9.60;99.90
28189;DHT22;15471;51.166;4.470;2022-09-27T07:44:32;9.70;99.90
28189;DHT22;15471;51.166;4.470;2022-09-27T07:47:16;9.80;99.90
28189;DHT22;15471;51.166;4.470;2022-09-27T07:50:08;9.80;99.90
28189;DHT22;15471;51.166;4.470;2022-09-27T07:52:52;9.90;99.90
28189;DHT22;15471;51.166;4.470;2022-09-27T07:55:52;9.80;99.90
28189;DHT22;15471;51.166;4.470;2022-09-27T07:58:26;9.80;99.90
28189;DHT22;15471;51.166;4.470;2022-09-27T08:00:58;9.70;99.90
28189;DHT22;15471;51.166;4.470;2022-09-27T08:03:25;9.70;99.90
28189;DHT22;15471;51.166;4.470;2022-09-27T08:05:52;9.60;99.90
28189;DHT22;15471;51.166;4.470;2022-09-27T08:08:17;9.60;99.90
28189;DHT22;15471;51.166;4.470;2022-09-27T08:10:46;9.60;99.90
28189;DHT22;15471;51.166;4.470;2022-09-27T08:13:14;9.60;99.90
28189;DHT22;15471;51.166;4.470;2022-09-27T08:15:45;9.70;99.90
28189;DHT22;15471;51.166;4.470;2022-09-27T08:18:11;9.70;99.90
28189;DHT22;15471;51.166;4.470;2022-09-27T08:20:59;9.70;99.90
28189;DHT22;15471;51.166;4.470;2022-09-27T08:23:29;9.80;99.90
28189;DHT22;15471;51.166;4.470;2022-09-27T08:26:27;9.70;99.90
28189;DHT22;15471;51.166;4.470;2022-09-27T08:29:06;9.70;99.90
28189;DHT22;15471;51.166;4.470;2022-09-27T08:31:37;9.70;99.90
28189;DHT22;15471;51.166;4.470;2022-09-27T08:34:04;9.60;99.90
28189;DHT22;15471;51.166;4.470;2022-09-27T08:36:30;9.60;99.90
28189;DHT22;15471;51.166;4.470;2022-09-27T08:39:00;9.70;99.90
28189;DHT22;15471;51.166;4.470;2022-09-27T08:44:13;9.90;99.90
28189;DHT22;15471;51.166;4.470;2022-09-27T08:47:24;9.90;99.90
28189;DHT22;15471;51.166;4.470;2022-09-27T08:52:59;10.00;99.90
28189;DHT22;15471;51.166;4.470;2022-09-27T08:55:35;10.10;99.90
28189;DHT22;15471;51.166;4.470;2022-09-27T08:58:19;10.00;99.90
28189;DHT22;15471;51.166;4.470;2022-09-27T09:00:50;10.00;99.90
28189;DHT22;15471;51.166;4.470;2022-09-27T09:03:23;10.10;99.90
28189;DHT22;15471;51.166;4.470;2022-09-27T09:06:01;10.10;99.90
28189;DHT22;15471;51.166;4.470;2022-09-27T09:14:33;10.30;99.90
28189;DHT22;15471;51.166;4.470;2022-09-27T09:20:02;10.20;99.90
28189;DHT22;15471;51.166;4.470;2022-09-27T09:23:00;10.00;99.90
28189;DHT22;15471;51.166;4.470;2022-09-27T09:26:24;9.90;99.90
28189;DHT22;15471;51.166;4.470;2022-09-27T09:28:50;10.00;99.90
28189;DHT22;15471;51.166;4.470;2022-09-27T09:31:26;10.00;99.90
28189;DHT22;15471;51.166;4.470;2022-09-27T09:34:00;10.10;99.90
28189;DHT22;15471;51.166;4.470;2022-09-27T09:36:41;10.10;99.90
28189;DHT22;15471;51.166;4.470;2022-09-27T09:42:06;10.10;99.90
28189;DHT22;15471;51.166;4.470;2022-09-27T09:44:48;10.00;99.90
28189;DHT22;15471;51.166;4.470;2022-09-27T09:47:36;10.10;99.90
28189;DHT22;15471;51.166;4.470;2022-09-27T09:50:25;10.10;99.90
28189;DHT22;15471;51.166;4.470;2022-09-27T09:55:39;10.40;99.90
28189;DHT22;15471;51.166;4.470;2022-09-27T10:00:47;10.60;99.90
28189;DHT22;15471;51.166;4.470;2022-09-27T10:03:14;10.60;99.90
28189;DHT22;15471;51.166;4.470;2022-09-27T10:05:42;10.60;99.90
28189;DHT22;15471;51.166;4.470;2022-09-27T10:08:20;10.60;99.90
28189;DHT22;15471;51.166;4.470;2022-09-27T10:10:54;10.80;99.90
28189;DHT22;15471;51.166;4.470;2022-09-27T10:13:43;10.90;99.90
28189;DHT22;15471;51.166;4.470;2022-09-27T10:16:13;11.10;99.90
28189;DHT22;15471;51.166;4.470;2022-09-27T10:18:41;11.30;99.90
28189;DHT22;15471;51.166;4.470;2022-09-27T10:21:34;11.40;99.90
28189;DHT22;15471;51.166;4.470;2022-09-27T10:26:57;11.50;99.90
28189;DHT22;15471;51.166;4.470;2022-09-27T10:29:31;11.50;99.90
28189;DHT22;15471;51.166;4.470;2022-09-27T10:31:59;11.60;99.90
28189;DHT22;15471;51.166;4.470;2022-09-27T10:34:39;11.50;99.90
28189;DHT22;15471;51.166;4.470;2022-09-27T10:37:20;11.10;99.90
28189;DHT22;15471;51.166;4.470;2022-09-27T10:40:24;10.90;99.90
28189;DHT22;15471;51.166;4.470;2022-09-27T10:42:51;10.80;99.90
28189;DHT22;15471;51.166;4.470;2022-09-27T10:45:33;10.80;99.90
28189;DHT22;15471;51.166;4.470;2022-09-27T10:48:18;11.00;99.90
28189;DHT22;15471;51.166;4.470;2022-09-27T10:50:59;11.40;99.90
28189;DHT22;15471;51.166;4.470;2022-09-27T10:53:45;11.70;99.90
28189;DHT22;15471;51.166;4.470;2022-09-27T10:56:25;12.00;99.90
28189;DHT22;15471;51.166;4.470;2022-09-27T10:58:53;12.30;99.90
28189;DHT22;15471;51.166;4.470;2022-09-27T11:01:21;12.40;99.90
28189;DHT22;15471;51.166;4.470;2022-09-27T11:04:05;12.10;99.90
28189;DHT22;15471;51.166;4.470;2022-09-27T11:06:33;12.20;99.90
28189;DHT22;15471;51.166;4.470;2022-09-27T11:09:21;12.10;99.90
28189;DHT22;15471;51.166;4.470;2022-09-27T11:12:13;12.00;99.90
28189;DHT22;15471;51.166;4.470;2022-09-27T11:14:42;12.00;99.90
28189;DHT22;15471;51.166;4.470;2022-09-27T11:17:18;11.90;99.90
28189;DHT22;15471;51.166;4.470;2022-09-27T11:20:15;11.60;99.90
28189;DHT22;15471;51.166;4.470;2022-09-27T11:22:59;11.40;99.90
28189;DHT22;15471;51.166;4.470;2022-09-27T11:31:40;11.40;99.90
28189;DHT22;15471;51.166;4.470;2022-09-27T11:34:40;11.50;99.90
28189;DHT22;15471;51.166;4.470;2022-09-27T11:37:14;11.40;99.90
28189;DHT22;15471;51.166;4.470;2022-09-27T11:40:03;11.40;99.90
28189;DHT22;15471;51.166;4.470;2022-09-27T11:53:59;12.00;99.90
28189;DHT22;15471;51.166;4.470;2022-09-27T12:02:09;10.90;99.90
28189;DHT22;15471;51.166;4.470;2022-09-27T12:04:50;10.00;99.90
28189;DHT22;15471;51.166;4.470;2022-09-27T12:09:59;9.50;99.90
28189;DHT22;15471;51.166;4.470;2022-09-27T12:12:32;9.50;99.90
28189;DHT22;15471;51.166;4.470;2022-09-27T12:15:35;9.60;99.90
28189;DHT22;15471;51.166;4.470;2022-09-27T12:18:11;9.90;99.90
28189;DHT22;15471;51.166;4.470;2022-09-27T12:20:40;10.20;99.90
28189;DHT22;15471;51.166;4.470;2022-09-27T12:26:39;11.00;99.90
28189;DHT22;15471;51.166;4.470;2022-09-27T12:29:29;11.50;99.90
28189;DHT22;15471;51.166;4.470;2022-09-27T12:32:24;11.90;99.90
28189;DHT22;15471;51.166;4.470;2022-09-27T12:35:04;12.30;99.90
28189;DHT22;15471;51.166;4.470;2022-09-27T12:40:39;13.00;99.90
28189;DHT22;15471;51.166;4.470;2022-09-27T12:43:21;13.20;99.90
28189;DHT22;15471;51.166;4.470;2022-09-27T12:49:49;12.70;99.90
28189;DHT22;15471;51.166;4.470;2022-09-27T12:52:17;12.70;99.90
28189;DHT22;15471;51.166;4.470;2022-09-27T12:57:59;12.50;99.90
28189;DHT22;15471;51.166;4.470;2022-09-27T13:00:31;12.40;99.90
28189;DHT22;15471;51.166;4.470;2022-09-27T13:05:58;12.10;99.90
28189;DHT22;15471;51.166;4.470;2022-09-27T13:11:28;12.20;99.90
28189;DHT22;15471;51.166;4.470;2022-09-27T13:14:02;12.20;99.90
28189;DHT22;15471;51.166;4.470;2022-09-27T13:16:30;12.30;99.90
28189;DHT22;15471;51.166;4.470;2022-09-27T13:18:58;12.40;99.90
28189;DHT22;15471;51.166;4.470;2022-09-27T13:24:41;12.30;99.90
28189;DHT22;15471;51.166;4.470;2022-09-27T13:30:41;11.50;99.90
28189;DHT22;15471;51.166;4.470;2022-09-27T13:36:07;10.80;99.90
28189;DHT22;15471;51.166;4.470;2022-09-27T13:42:06;10.60;99.90
28189;DHT22;15471;51.166;4.470;2022-09-27T13:44:56;10.70;99.90
28189;DHT22;15471;51.166;4.470;2022-09-27T13:47:35;10.90;99.90
28189;DHT22;15471;51.166;4.470;2022-09-27T13:50:15;10.90;99.90
28189;DHT22;15471;51.166;4.470;2022-09-27T13:55:48;10.80;99.90
28189;DHT22;15471;51.166;4.470;2022-09-27T13:59:43;10.70;99.90
28189;DHT22;15471;51.166;4.470;2022-09-27T14:02:19;10.60;99.90
28189;DHT22;15471;51.166;4.470;2022-09-27T14:04:49;10.50;99.90
28189;DHT22;15471;51.166;4.470;2022-09-27T14:07:20;10.30;99.90
28189;DHT22;15471;51.166;4.470;2022-09-27T14:09:54;10.10;99.90
28189;DHT22;15471;51.166;4.470;2022-09-27T14:12:31;10.10;99.90
28189;DHT22;15471;51.166;4.470;2022-09-27T14:15:02;10.20;99.90
28189;DHT22;15471;51.166;4.470;2022-09-27T14:17:31;10.20;99.90
28189;DHT22;15471;51.166;4.470;2022-09-27T14:20:02;10.20;99.90
28189;DHT22;15471;51.166;4.470;2022-09-27T14:22:34;10.20;99.90
28189;DHT22;15471;51.166;4.470;2022-09-27T14:25:11;10.30;99.90
28189;DHT22;15471;51.166;4.470;2022-09-27T14:27:41;10.20;99.90
28189;DHT22;15471;51.166;4.470;2022-09-27T14:30:29;10.30;99.90
28189;DHT22;15471;51.166;4.470;2022-09-27T14:33:28;10.30;99.90
28189;DHT22;15471;51.166;4.470;2022-09-27T14:35:59;10.50;99.90
28189;DHT22;15471;51.166;4.470;2022-09-27T14:38:46;10.60;99.90
28189;DHT22;15471;51.166;4.470;2022-09-27T14:41:19;10.70;99.90
28189;DHT22;15471;51.166;4.470;2022-09-27T14:43:46;10.80;99.90
28189;DHT22;15471;51.166;4.470;2022-09-27T14:46:27;10.80;99.90
28189;DHT22;15471;51.166;4.470;2022-09-27T14:48:54;11.00;99.90
28189;DHT22;15471;51.166;4.470;2022-09-27T14:51:29;11.10;99.90
28189;DHT22;15471;51.166;4.470;2022-09-27T14:53:58;11.20;99.90
28189;DHT22;15471;51.166;4.470;2022-09-27T14:59:13;11.50;99.90
28189;DHT22;15471;51.166;4.470;2022-09-27T15:01:48;11.40;99.90
28189;DHT22;15471;51.166;4.470;2022-09-27T15:04:15;11.20;99.90
28189;DHT22;15471;51.166;4.470;2022-09-27T15:06:42;11.10;99.90
28189;DHT22;15471;51.166;4.470;2022-09-27T15:09:13;10.90;99.90
28189;DHT22;15471;51.166;4.470;2022-09-27T15:11:40;10.90;99.90
28189;DHT22;15471;51.166;4.470;2022-09-27T15:14:13;10.80;99.90
28189;DHT22;15471;51.166;4.470;2022-09-27T15:16:40;10.70;99.90
28189;DHT22;15471;51.166;4.470;2022-09-27T15:19:13;10.70;99.90
28189;DHT22;15471;51.166;4.470;2022-09-27T15:21:40;10.90;99.90
28189;DHT22;15471;51.166;4.470;2022-09-27T15:27:25;11.20;99.90
28189;DHT22;15471;51.166;4.470;2022-09-27T15:29:57;11.40;99.90
28189;DHT22;15471;51.166;4.470;2022-09-27T15:32:26;11.50;99.90
28189;DHT22;15471;51.166;4.470;2022-09-27T15:34:52;11.70;99.90
28189;DHT22;15471;51.166;4.470;2022-09-27T15:37:34;11.80;99.90
28189;DHT22;15471;51.166;4.470;2022-09-27T15:42:59;12.10;99.90
28189;DHT22;15471;51.166;4.470;2022-09-27T15:45:32;12.10;99.90
28189;DHT22;15471;51.166;4.470;2022-09-27T15:48:14;12.10;99.90
28189;DHT22;15471;51.166;4.470;2022-09-27T15:50:41;11.90;99.90
28189;DHT22;15471;51.166;4.470;2022-09-27T15:53:08;11.80;99.90
28189;DHT22;15471;51.166;4.470;2022-09-27T15:55:44;11.70;99.90
28189;DHT22;15471;51.166;4.470;2022-09-27T15:58:18;11.80;99.90
28189;DHT22;15471;51.166;4.470;2022-09-27T16:00:59;11.70;99.90
28189;DHT22;15471;51.166;4.470;2022-09-27T16:03:30;11.80;99.90
28189;DHT22;15471;51.166;4.470;2022-09-27T16:05:58;11.90;99.90
28189;DHT22;15471;51.166;4.470;2022-09-27T16:08:24;11.90;99.90
28189;DHT22;15471;51.166;4.470;2022-09-27T16:10:53;12.00;99.90
28189;DHT22;15471;51.166;4.470;2022-09-27T16:13:23;12.10;99.90
28189;DHT22;15471;51.166;4.470;2022-09-27T16:15:49;12.40;99.90
28189;DHT22;15471;51.166;4.470;2022-09-27T16:18:16;12.60;99.90
28189;DHT22;15471;51.166;4.470;2022-09-27T16:20:42;12.70;99.90
28189;DHT22;15471;51.166;4.470;2022-09-27T16:23:08;12.60;99.90
28189;DHT22;15471;51.166;4.470;2022-09-27T16:25:34;12.60;99.90
28189;DHT22;15471;51.166;4.470;2022-09-27T16:28:01;12.50;99.90
28189;DHT22;15471;51.166;4.470;2022-09-27T16:30:28;12.50;99.90
28189;DHT22;15471;51.166;4.470;2022-09-27T16:32:58;12.50;99.90
28189;DHT22;15471;51.166;4.470;2022-09-27T16:35:24;12.40;99.90
28189;DHT22;15471;51.166;4.470;2022-09-27T16:37:50;12.50;99.90
28189;DHT22;15471;51.166;4.470;2022-09-27T16:40:17;12.60;99.90
28189;DHT22;15471;51.166;4.470;2022-09-27T16:42:47;12.60;99.90
28189;DHT22;15471;51.166;4.470;2022-09-27T16:45:14;12.50;99.90
28189;DHT22;15471;51.166;4.470;2022-09-27T16:47:43;12.30;99.90
28189;DHT22;15471;51.166;4.470;2022-09-27T16:50:11;12.10;99.90
28189;DHT22;15471;51.166;4.470;2022-09-27T16:53:07;12.00;99.90
28189;DHT22;15471;51.166;4.470;2022-09-27T16:55:42;11.90;99.90
28189;DHT22;15471;51.166;4.470;2022-09-27T16:58:08;11.80;99.90
28189;DHT22;15471;51.166;4.470;2022-09-27T17:00:35;11.70;99.90
28189;DHT22;15471;51.166;4.470;2022-09-27T17:03:01;11.70;99.90
28189;DHT22;15471;51.166;4.470;2022-09-27T17:05:27;11.50;99.90
28189;DHT22;15471;51.166;4.470;2022-09-27T17:07:53;11.50;99.90
28189;DHT22;15471;51.166;4.470;2022-09-27T17:10:20;11.40;99.90
28189;DHT22;15471;51.166;4.470;2022-09-27T17:12:46;11.50;99.90
28189;DHT22;15471;51.166;4.470;2022-09-27T17:15:13;11.50;99.90
28189;DHT22;15471;51.166;4.470;2022-09-27T17:17:39;11.60;99.90
28189;DHT22;15471;51.166;4.470;2022-09-27T17:20:05;11.60;99.90
28189;DHT22;15471;51.166;4.470;2022-09-27T17:22:32;11.50;99.90
28189;DHT22;15471;51.166;4.470;2022-09-27T17:24:58;11.50;99.90
28189;DHT22;15471;51.166;4.470;2022-09-27T17:27:26;11.40;99.90
28189;DHT22;15471;51.166;4.470;2022-09-27T17:29:53;11.40;99.90
28189;DHT22;15471;51.166;4.470;2022-09-27T17:32:20;11.50;99.90
28189;DHT22;15471;51.166;4.470;2022-09-27T17:34:47;11.30;99.90
28189;DHT22;15471;51.166;4.470;2022-09-27T17:37:13;11.20;99.90
28189;DHT22;15471;51.166;4.470;2022-09-27T17:39:39;11.20;99.90
28189;DHT22;15471;51.166;4.470;2022-09-27T17:42:06;11.10;99.90
28189;DHT22;15471;51.166;4.470;2022-09-27T17:44:33;11.10;99.90
28189;DHT22;15471;51.166;4.470;2022-09-27T17:46:59;11.10;99.90
28189;DHT22;15471;51.166;4.470;2022-09-27T17:49:43;11.00;99.90
28189;DHT22;15471;51.166;4.470;2022-09-27T17:52:28;11.00;99.90
28189;DHT22;15471;51.166;4.470;2022-09-27T17:54:55;10.90;99.90
28189;DHT22;15471;51.166;4.470;2022-09-27T17:57:23;10.90;99.90
28189;DHT22;15471;51.166;4.470;2022-09-27T17:59:49;10.90;99.90
28189;DHT22;15471;51.166;4.470;2022-09-27T18:02:15;10.90;99.90
28189;DHT22;15471;51.166;4.470;2022-09-27T18:04:41;10.90;99.90
28189;DHT22;15471;51.166;4.470;2022-09-27T18:07:09;10.80;99.90
28189;DHT22;15471;51.166;4.470;2022-09-27T18:09:38;10.70;99.90
28189;DHT22;15471;51.166;4.470;2022-09-27T18:12:04;10.50;99.90
28189;DHT22;15471;51.166;4.470;2022-09-27T18:14:30;10.40;99.90
28189;DHT22;15471;51.166;4.470;2022-09-27T18:16:57;10.30;99.90
28189;DHT22;15471;51.166;4.470;2022-09-27T18:19:23;10.30;99.90
28189;DHT22;15471;51.166;4.470;2022-09-27T18:21:50;10.20;99.90
28189;DHT22;15471;51.166;4.470;2022-09-27T18:24:16;10.20;99.90
28189;DHT22;15471;51.166;4.470;2022-09-27T18:26:42;10.20;99.90
28189;DHT22;15471;51.166;4.470;2022-09-27T18:29:13;10.20;99.90
28189;DHT22;15471;51.166;4.470;2022-09-27T18:31:40;10.20;99.90
28189;DHT22;15471;51.166;4.470;2022-09-27T18:34:07;10.20;99.90
28189;DHT22;15471;51.166;4.470;2022-09-27T18:36:34;10.00;99.90
28189;DHT22;15471;51.166;4.470;2022-09-27T18:39:03;9.70;99.90